createdAt,value
2018-09-02T00:00:46.219Z,95.30
2018-09-02T00:03:16.030Z,95.30
2018-09-02T00:05:45.090Z,95.60
2018-09-02T00:08:12.155Z,95.60
2018-09-02T00:10:40.491Z,96.20
2018-09-02T00:13:09.615Z,95.90
2018-09-02T00:15:38.158Z,96.20
2018-09-02T00:18:06.340Z,96.20
2018-09-02T00:20:33.434Z,96.50
2018-09-02T00:23:01.732Z,96.70
2018-09-02T00:28:09.021Z,97.20
2018-09-02T00:30:37.550Z,97.10
2018-09-02T00:33:07.041Z,97.50
2018-09-02T00:35:35.589Z,97.50
2018-09-02T00:38:05.016Z,97.80
2018-09-02T00:40:32.669Z,98.20
2018-09-02T00:43:03.512Z,98.20
2018-09-02T00:45:32.636Z,98.10
2018-09-02T00:48:00.586Z,98.50
2018-09-02T00:50:27.867Z,98.50
2018-09-02T00:52:54.870Z,98.50
2018-09-02T00:55:25.002Z,98.70
2018-09-02T00:57:52.649Z,98.80
2018-09-02T01:00:20.890Z,99.20
2018-09-02T01:02:48.925Z,99.20
2018-09-02T01:05:17.686Z,99.40
2018-09-02T01:07:46.069Z,99.60
2018-09-02T01:10:14.861Z,99.60
2018-09-02T01:12:42.834Z,99.90
2018-09-02T01:15:12.409Z,99.90
2018-09-02T01:17:40.123Z,99.90
2018-09-02T01:20:07.831Z,99.90
2018-09-02T01:22:35.168Z,99.90
2018-09-02T01:25:02.132Z,99.90
2018-09-02T01:27:31.863Z,99.90
2018-09-02T01:30:01.766Z,99.90
2018-09-02T01:32:31.726Z,99.90
2018-09-02T01:34:59.525Z,99.90
2018-09-02T01:37:30.453Z,99.90
2018-09-02T01:40:00.476Z,99.90
2018-09-02T01:42:35.946Z,99.90
2018-09-02T01:45:03.856Z,99.90
2018-09-02T01:47:31.791Z,99.90
2018-09-02T01:50:02.238Z,99.90
2018-09-02T01:52:33.086Z,99.90
2018-09-02T01:55:01.688Z,99.90
2018-09-02T01:57:30.558Z,99.90
2018-09-02T01:59:56.932Z,99.90
2018-09-02T02:02:25.009Z,99.90
2018-09-02T02:04:54.219Z,99.90
2018-09-02T02:07:24.258Z,99.90
2018-09-02T02:09:58.243Z,99.90
2018-09-02T02:12:27.979Z,99.90
2018-09-02T02:14:59.885Z,99.90
2018-09-02T02:17:29.490Z,99.90
2018-09-02T02:20:01.874Z,99.90
2018-09-02T02:22:30.720Z,99.90
2018-09-02T02:25:00.460Z,99.90
2018-09-02T02:27:34.711Z,99.90
2018-09-02T02:30:03.489Z,99.90
2018-09-02T02:32:34.403Z,99.90
2018-09-02T02:35:03.984Z,99.90
2018-09-02T02:37:31.461Z,99.90
2018-09-02T02:40:01.193Z,99.90
2018-09-02T02:42:30.356Z,99.90
2018-09-02T02:45:00.857Z,99.90
2018-09-02T02:47:29.762Z,99.90
2018-09-02T02:49:57.353Z,99.90
2018-09-02T02:52:26.366Z,99.90
2018-09-02T02:54:54.046Z,99.90
2018-09-02T02:57:25.111Z,99.90
2018-09-02T02:59:58.325Z,99.90
2018-09-02T03:02:25.888Z,99.90
2018-09-02T03:04:54.690Z,99.90
2018-09-02T03:07:22.073Z,99.90
2018-09-02T03:09:50.624Z,99.90
2018-09-02T03:12:24.804Z,99.90
2018-09-02T03:14:54.496Z,99.90
2018-09-02T03:17:24.053Z,99.90
2018-09-02T03:19:52.743Z,99.90
2018-09-02T03:24:59.450Z,99.90
2018-09-02T03:27:28.625Z,99.90
2018-09-02T03:29:57.289Z,99.90
2018-09-02T03:32:25.672Z,99.90
2018-09-02T03:34:55.236Z,99.90
2018-09-02T03:37:27.294Z,99.90
2018-09-02T03:39:57.631Z,99.90
2018-09-02T03:42:29.188Z,99.90
2018-09-02T03:45:00.067Z,99.90
2018-09-02T03:47:30.796Z,99.90
2018-09-02T03:49:59.707Z,99.90
2018-09-02T03:52:30.170Z,99.90
2018-09-02T03:55:00.971Z,99.90
2018-09-02T03:57:28.386Z,99.90
2018-09-02T03:59:58.547Z,99.90
2018-09-02T04:02:27.749Z,99.90
2018-09-02T04:04:55.741Z,99.90
2018-09-02T04:07:25.713Z,99.90
2018-09-02T04:09:53.447Z,99.90
2018-09-02T04:12:21.733Z,99.90
2018-09-02T04:14:50.524Z,99.90
2018-09-02T04:17:21.846Z,99.90
2018-09-02T04:19:52.434Z,99.90
2018-09-02T04:22:23.623Z,99.90
2018-09-02T04:24:52.333Z,99.90
2018-09-02T04:27:21.723Z,99.90
2018-09-02T04:29:50.409Z,99.90
2018-09-02T04:32:17.976Z,99.90
2018-09-02T04:34:48.060Z,99.90
2018-09-02T04:39:56.387Z,99.90
2018-09-02T04:42:25.538Z,99.90
2018-09-02T04:44:54.191Z,99.90
2018-09-02T04:49:38.229Z,99.90
2018-09-02T04:52:07.401Z,99.90
2018-09-02T04:54:36.088Z,99.90
2018-09-02T04:57:04.255Z,99.90
2018-09-02T04:59:32.315Z,99.90
2018-09-02T05:02:00.005Z,99.90
2018-09-02T05:04:27.648Z,99.90
2018-09-02T05:06:55.313Z,99.90
2018-09-02T05:09:26.443Z,99.90
2018-09-02T05:11:54.890Z,99.90
2018-09-02T05:14:22.740Z,99.90
2018-09-02T05:16:52.689Z,99.90
2018-09-02T05:19:20.892Z,99.90
2018-09-02T05:21:48.116Z,99.90
2018-09-02T05:24:15.859Z,99.90
2018-09-02T05:26:45.528Z,99.90
2018-09-02T05:29:15.390Z,99.90
2018-09-02T05:31:43.337Z,99.90
2018-09-02T05:34:12.524Z,99.90
2018-09-02T05:36:39.821Z,99.90
2018-09-02T05:39:06.908Z,99.90
2018-09-02T05:41:35.943Z,99.90
2018-09-02T05:44:06.422Z,99.90
2018-09-02T05:49:07.912Z,99.90
2018-09-02T05:51:38.123Z,99.90
2018-09-02T05:54:05.373Z,99.90
2018-09-02T05:56:34.867Z,99.90
2018-09-02T05:59:03.889Z,99.90
2018-09-02T06:01:31.833Z,99.90
2018-09-02T06:04:03.378Z,99.90
2018-09-02T06:06:33.091Z,99.90
2018-09-02T06:09:01.128Z,99.90
2018-09-02T06:11:28.076Z,99.90
2018-09-02T06:13:56.691Z,99.90
2018-09-02T06:16:24.671Z,99.90
2018-09-02T06:21:28.583Z,99.90
2018-09-02T06:23:56.331Z,99.90
2018-09-02T06:26:24.673Z,99.90
2018-09-02T06:28:51.988Z,99.90
2018-09-02T06:31:20.965Z,99.90
2018-09-02T06:33:52.509Z,99.90
2018-09-02T06:36:20.518Z,99.90
2018-09-02T06:38:48.738Z,99.90
2018-09-02T06:41:18.080Z,99.90
2018-09-02T06:43:47.910Z,99.90
2018-09-02T06:46:15.048Z,99.90
2018-09-02T06:48:45.091Z,99.90
2018-09-02T06:51:16.440Z,99.90
2018-09-02T06:53:44.285Z,99.90
2018-09-02T06:56:13.388Z,99.90
2018-09-02T06:58:43.537Z,99.90
2018-09-02T07:01:11.553Z,99.90
2018-09-02T07:03:43.399Z,99.90
2018-09-02T07:06:12.856Z,99.90
2018-09-02T07:08:40.577Z,99.90
2018-09-02T07:11:09.731Z,99.90
2018-09-02T07:13:45.908Z,99.90
2018-09-02T07:16:13.852Z,99.90
2018-09-02T07:18:44.978Z,99.90
2018-09-02T07:21:13.096Z,99.90
2018-09-02T07:23:43.299Z,99.90
2018-09-02T07:26:14.155Z,99.90
2018-09-02T07:28:45.205Z,99.90
2018-09-02T07:31:14.379Z,99.90
2018-09-02T07:33:43.146Z,99.90
2018-09-02T07:36:10.180Z,99.90
2018-09-02T07:38:36.584Z,99.90
2018-09-02T07:41:02.881Z,99.90
2018-09-02T07:43:29.186Z,99.90
2018-09-02T07:45:55.453Z,99.90
2018-09-02T07:48:21.681Z,99.90
2018-09-02T07:50:47.963Z,99.90
2018-09-02T07:53:14.234Z,99.90
2018-09-02T07:55:40.494Z,99.90
2018-09-02T07:58:07.525Z,99.90
2018-09-02T08:00:33.761Z,99.90
2018-09-02T08:03:00.014Z,99.90
2018-09-02T08:05:27.006Z,99.90
2018-09-02T08:07:53.285Z,99.90
2018-09-02T08:10:20.265Z,99.90
2018-09-02T08:12:46.605Z,99.90
2018-09-02T08:15:12.804Z,99.90
2018-09-02T08:17:39.178Z,99.90
2018-09-02T08:20:05.446Z,99.90
2018-09-02T08:22:32.474Z,99.90
2018-09-02T08:24:58.737Z,99.90
2018-09-02T08:27:25.078Z,99.90
2018-09-02T08:29:51.346Z,99.90
2018-09-02T08:32:17.978Z,99.90
2018-09-02T08:34:44.254Z,99.90
2018-09-02T08:37:11.247Z,99.90
2018-09-02T08:39:37.536Z,99.90
2018-09-02T08:42:03.849Z,99.90
2018-09-02T08:44:30.136Z,99.90
2018-09-02T08:46:56.417Z,99.90
2018-09-02T08:49:22.728Z,99.90
2018-09-02T08:51:48.995Z,99.90
2018-09-02T08:54:16.061Z,99.90
2018-09-02T08:56:42.409Z,99.90
2018-09-02T08:59:08.645Z,99.90
2018-09-02T09:01:34.962Z,99.90
2018-09-02T09:04:01.197Z,99.90
2018-09-02T09:06:27.451Z,99.90
2018-09-02T09:08:53.804Z,99.90
2018-09-02T09:11:20.046Z,99.90
2018-09-02T09:13:46.298Z,99.90
2018-09-02T09:16:12.567Z,99.90
2018-09-02T09:18:38.831Z,99.90
2018-09-02T09:21:05.090Z,99.90
2018-09-02T09:23:32.105Z,99.90
2018-09-02T09:25:58.333Z,99.90
2018-09-02T09:28:24.633Z,99.90
2018-09-02T09:30:50.866Z,99.90
2018-09-02T09:33:17.149Z,99.90
2018-09-02T09:35:43.425Z,99.90
2018-09-02T09:38:09.664Z,99.90
2018-09-02T09:40:35.925Z,99.90
2018-09-02T09:43:02.771Z,99.90
2018-09-02T09:45:29.128Z,99.90
2018-09-02T09:47:56.117Z,99.90
2018-09-02T09:50:22.384Z,99.90
2018-09-02T09:52:58.610Z,99.90
2018-09-02T09:55:24.913Z,99.90
2018-09-02T09:57:51.196Z,99.90
2018-09-02T10:00:17.481Z,99.90
2018-09-02T10:02:43.745Z,99.90
2018-09-02T10:05:10.017Z,99.90
2018-09-02T10:07:37.004Z,99.90
2018-09-02T10:10:03.293Z,99.90
2018-09-02T10:12:29.561Z,99.90
2018-09-02T10:14:55.797Z,99.90
2018-09-02T10:17:22.067Z,99.90
2018-09-02T10:19:48.298Z,99.90
2018-09-02T10:22:14.578Z,99.90
2018-09-02T10:24:40.855Z,99.90
2018-09-02T10:27:07.087Z,99.90
2018-09-02T10:29:33.361Z,99.90
2018-09-02T10:32:09.673Z,99.90
2018-09-02T10:34:39.395Z,99.90
2018-09-02T10:37:06.409Z,99.90
2018-09-02T10:39:32.785Z,99.90
2018-09-02T10:42:00.233Z,99.90
2018-09-02T10:44:26.966Z,99.90
2018-09-02T10:46:54.345Z,99.90
2018-09-02T10:49:23.712Z,99.90
2018-09-02T10:51:50.057Z,99.90
2018-09-02T10:54:16.445Z,99.90
2018-09-02T10:56:43.633Z,99.90
2018-09-02T10:59:10.051Z,99.90
2018-09-02T11:01:36.612Z,99.90
2018-09-02T11:04:02.993Z,99.90
2018-09-02T11:06:29.984Z,99.90
2018-09-02T11:08:56.534Z,99.90
2018-09-02T11:11:23.648Z,99.90
2018-09-02T11:13:50.506Z,99.90
2018-09-02T11:16:17.985Z,99.90
2018-09-02T11:18:44.421Z,99.90
2018-09-02T11:21:11.352Z,99.90
2018-09-02T11:23:37.792Z,99.90
2018-09-02T11:26:04.876Z,99.90
2018-09-02T11:28:37.593Z,99.90
2018-09-02T11:31:15.545Z,99.90
2018-09-02T11:33:41.994Z,99.90
2018-09-02T11:36:08.729Z,99.90
2018-09-02T11:38:36.401Z,99.90
2018-09-02T11:41:03.976Z,99.90
2018-09-02T11:43:32.545Z,99.90
2018-09-02T11:46:05.082Z,99.90
2018-09-02T11:48:34.833Z,99.90
2018-09-02T11:51:02.660Z,99.90
2018-09-02T11:53:30.476Z,99.90
2018-09-02T11:55:57.189Z,99.90
2018-09-02T11:58:27.143Z,99.90
2018-09-02T12:00:57.529Z,99.90
2018-09-02T12:03:25.101Z,99.90
2018-09-02T12:05:53.740Z,99.90
2018-09-02T12:08:21.921Z,99.90
2018-09-02T12:10:49.734Z,99.90
2018-09-02T12:13:16.516Z,99.90
2018-09-02T12:15:44.541Z,99.90
2018-09-02T12:18:14.024Z,99.90
2018-09-02T12:20:41.026Z,99.90
2018-09-02T12:23:10.764Z,99.90
2018-09-02T12:25:41.196Z,99.90
2018-09-02T12:28:08.396Z,99.90
2018-09-02T12:30:35.260Z,99.90
2018-09-02T12:33:03.555Z,99.90
2018-09-02T12:35:29.973Z,99.90
2018-09-02T12:37:57.181Z,99.90
2018-09-02T12:40:23.474Z,99.90
2018-09-02T12:42:49.742Z,99.90
2018-09-02T12:45:16.037Z,99.90
2018-09-02T12:47:42.317Z,99.90
2018-09-02T12:50:08.591Z,99.90
2018-09-02T12:52:34.869Z,99.90
2018-09-02T12:55:04.717Z,99.90
2018-09-02T12:57:34.740Z,99.90
2018-09-02T13:00:01.980Z,99.90
2018-09-02T13:02:29.208Z,99.90
2018-09-02T13:04:58.006Z,99.90
2018-09-02T13:07:25.140Z,99.90
2018-09-02T13:09:53.379Z,99.90
2018-09-02T13:12:21.289Z,99.90
2018-09-02T13:14:47.622Z,99.90
2018-09-02T13:17:13.866Z,99.90
2018-09-02T13:19:40.135Z,99.90
2018-09-02T13:22:06.888Z,99.90
2018-09-02T13:24:33.248Z,99.90
2018-09-02T13:27:01.383Z,99.90
2018-09-02T13:29:28.366Z,99.90
2018-09-02T13:31:54.713Z,99.90
2018-09-02T13:34:21.012Z,99.90
2018-09-02T13:36:47.273Z,99.90
2018-09-02T13:39:13.542Z,99.90
2018-09-02T13:41:40.621Z,99.90
2018-09-02T13:44:07.331Z,99.90
2018-09-02T13:46:34.363Z,99.90
2018-09-02T13:49:00.596Z,99.90
2018-09-02T13:51:27.735Z,99.90
2018-09-02T13:53:53.897Z,99.90
2018-09-02T13:56:20.773Z,99.90
2018-09-02T13:58:47.091Z,99.90
2018-09-02T14:01:13.408Z,99.90
2018-09-02T14:03:39.636Z,99.90
2018-09-02T14:06:07.093Z,99.90
2018-09-02T14:08:34.577Z,99.90
2018-09-02T14:11:00.863Z,99.90
2018-09-02T14:13:27.101Z,99.90
2018-09-02T14:15:54.295Z,99.90
2018-09-02T14:18:22.054Z,99.90
2018-09-02T14:20:48.369Z,99.90
2018-09-02T14:23:15.213Z,99.90
2018-09-02T14:25:41.486Z,99.90
2018-09-02T14:28:07.756Z,99.90
2018-09-02T14:30:34.790Z,99.90
2018-09-02T14:33:02.599Z,99.90
2018-09-02T14:35:28.866Z,99.90
2018-09-02T14:37:55.130Z,99.90
2018-09-02T14:40:22.865Z,99.90
2018-09-02T14:42:49.156Z,99.90
2018-09-02T14:45:15.525Z,99.90
2018-09-02T14:47:41.802Z,99.90
2018-09-02T14:50:08.091Z,99.90
2018-09-02T14:52:34.325Z,99.90
2018-09-02T14:55:00.617Z,99.90
2018-09-02T14:57:26.853Z,99.90
2018-09-02T14:59:53.132Z,99.90
2018-09-02T15:02:20.112Z,99.90
2018-09-02T15:04:46.382Z,99.90
2018-09-02T15:07:12.657Z,99.90
2018-09-02T15:09:38.897Z,99.90
2018-09-02T15:12:05.170Z,99.90
2018-09-02T15:14:31.433Z,99.90
2018-09-02T15:16:58.470Z,99.90
2018-09-02T15:19:26.129Z,99.90
2018-09-02T15:21:52.461Z,99.90
2018-09-02T15:24:18.733Z,99.90
2018-09-02T15:26:44.979Z,99.90
2018-09-02T15:29:11.244Z,99.90
2018-09-02T15:31:37.506Z,99.90
2018-09-02T15:34:04.491Z,99.90
2018-09-02T15:36:30.777Z,99.90
2018-09-02T15:38:57.014Z,99.90
2018-09-02T15:41:24.050Z,99.90
2018-09-02T15:43:51.039Z,99.90
2018-09-02T15:46:17.322Z,99.90
2018-09-02T15:48:43.581Z,99.90
2018-09-02T15:51:09.869Z,99.90
2018-09-02T15:53:36.155Z,99.90
2018-09-02T15:56:02.412Z,99.90
2018-09-02T15:58:28.669Z,99.90
2018-09-02T16:00:55.034Z,99.90
2018-09-02T16:03:21.221Z,99.90
2018-09-02T16:05:47.615Z,99.90
2018-09-02T16:08:13.893Z,99.90
2018-09-02T16:10:40.965Z,99.90
2018-09-02T16:13:08.663Z,99.90
2018-09-02T16:15:39.030Z,99.90
2018-09-02T16:18:05.314Z,99.90
2018-09-02T16:20:31.698Z,99.90
2018-09-02T16:22:59.314Z,99.90
2018-09-02T16:25:25.574Z,99.90
2018-09-02T16:27:51.907Z,99.90
2018-09-02T16:30:18.580Z,99.90
2018-09-02T16:32:44.887Z,99.90
2018-09-02T16:35:11.991Z,99.90
2018-09-02T16:37:38.336Z,99.90
2018-09-02T16:40:04.670Z,99.90
2018-09-02T16:42:31.116Z,99.90
2018-09-02T16:45:01.113Z,99.90
2018-09-02T16:47:28.300Z,99.90
2018-09-02T16:49:57.800Z,99.90
2018-09-02T16:52:31.009Z,99.90
2018-09-02T16:55:02.054Z,99.90
2018-09-02T16:57:29.577Z,99.90
2018-09-02T16:59:58.181Z,99.90
2018-09-02T17:02:26.910Z,99.90
2018-09-02T17:04:53.568Z,99.90
2018-09-02T17:07:20.587Z,99.90
2018-09-02T17:09:46.956Z,99.90
2018-09-02T17:12:13.286Z,99.90
2018-09-02T17:14:41.438Z,99.90
2018-09-02T17:17:09.335Z,99.90
2018-09-02T17:19:35.617Z,99.90
2018-09-02T17:22:01.897Z,99.90
2018-09-02T17:24:28.177Z,99.90
2018-09-02T17:26:55.432Z,99.90
2018-09-02T17:29:21.955Z,99.90
2018-09-02T17:31:51.432Z,99.90
2018-09-02T17:34:20.133Z,99.90
2018-09-02T17:36:46.469Z,99.90
2018-09-02T17:39:13.131Z,99.90
2018-09-02T17:41:40.491Z,99.90
2018-09-02T17:44:07.359Z,99.90
2018-09-02T17:46:33.715Z,99.90
2018-09-02T17:49:01.703Z,99.90
2018-09-02T17:51:28.001Z,99.90
2018-09-02T17:53:54.298Z,99.90
2018-09-02T17:56:30.873Z,99.90
2018-09-02T17:58:59.148Z,99.90
2018-09-02T18:01:26.499Z,99.90
2018-09-02T18:03:53.346Z,99.90
2018-09-02T18:06:19.736Z,99.90
2018-09-02T18:08:46.798Z,99.90
2018-09-02T18:11:13.071Z,99.90
2018-09-02T18:13:41.782Z,99.90
2018-09-02T18:16:08.161Z,99.90
2018-09-02T18:18:34.615Z,99.90
2018-09-02T18:21:10.857Z,99.90
2018-09-02T18:23:37.393Z,99.90
2018-09-02T18:26:04.395Z,99.90
2018-09-02T18:28:30.720Z,99.90
2018-09-02T18:30:57.434Z,99.90
2018-09-02T18:33:25.521Z,99.90
2018-09-02T18:35:52.745Z,99.90
2018-09-02T18:38:19.336Z,99.90
2018-09-02T18:40:45.765Z,99.90
2018-09-02T18:43:12.507Z,99.90
2018-09-02T18:45:39.438Z,99.90
2018-09-02T18:48:05.845Z,99.90
2018-09-02T18:50:32.080Z,99.90
2018-09-02T18:52:58.452Z,99.90
2018-09-02T18:55:24.804Z,99.90
2018-09-02T18:57:51.051Z,99.90
2018-09-02T19:00:17.318Z,99.90
2018-09-02T19:02:45.296Z,99.90
2018-09-02T19:05:12.621Z,99.90
2018-09-02T19:07:40.619Z,99.90
2018-09-02T19:10:09.594Z,99.90
2018-09-02T19:12:38.745Z,99.90
2018-09-02T19:15:06.247Z,99.90
2018-09-02T19:17:33.133Z,99.90
2018-09-02T19:20:00.520Z,99.90
2018-09-02T19:22:28.117Z,99.90
2018-09-02T19:24:55.323Z,99.90
2018-09-02T19:27:23.177Z,99.90
2018-09-02T19:29:52.523Z,99.90
2018-09-02T19:32:19.672Z,99.90
2018-09-02T19:34:45.928Z,99.90
2018-09-02T19:37:13.460Z,99.90
2018-09-02T19:39:39.850Z,99.90
2018-09-02T19:42:07.149Z,99.90
2018-09-02T19:44:35.399Z,99.90
2018-09-02T19:47:03.307Z,99.90
2018-09-02T19:49:30.542Z,99.90
2018-09-02T19:51:57.754Z,99.90
2018-09-02T19:54:24.123Z,99.90
2018-09-02T19:56:52.932Z,99.90
2018-09-02T19:59:20.732Z,99.90
2018-09-02T20:01:47.336Z,99.90
2018-09-02T20:04:13.640Z,99.90
2018-09-02T20:06:39.992Z,99.90
2018-09-02T20:09:06.609Z,99.90
2018-09-02T20:11:33.575Z,99.90
2018-09-02T20:14:00.774Z,99.90
2018-09-02T20:16:27.127Z,99.90
2018-09-02T20:18:54.070Z,99.90
2018-09-02T20:21:20.783Z,99.90
2018-09-02T20:23:47.847Z,99.90
2018-09-02T20:26:16.421Z,99.90
2018-09-02T20:28:42.878Z,99.90
2018-09-02T20:31:09.686Z,99.90
2018-09-02T20:33:36.666Z,99.90
2018-09-02T20:36:03.818Z,99.90
2018-09-02T20:38:30.313Z,99.90
2018-09-02T20:40:58.686Z,99.90
2018-09-02T20:43:26.426Z,99.90
2018-09-02T20:45:54.299Z,99.90
2018-09-02T20:48:22.463Z,99.90
2018-09-02T20:50:49.696Z,99.90
2018-09-02T20:53:18.245Z,99.90
2018-09-02T20:55:44.555Z,99.90
2018-09-02T20:58:12.657Z,99.90
2018-09-02T21:00:39.533Z,99.90
2018-09-02T21:03:07.113Z,99.90
2018-09-02T21:05:34.026Z,99.90
2018-09-02T21:08:01.064Z,99.90
2018-09-02T21:10:30.041Z,99.90
2018-09-02T21:12:57.102Z,99.90
2018-09-02T21:15:24.217Z,99.90
2018-09-02T21:17:51.038Z,99.90
2018-09-02T21:20:18.946Z,99.90
2018-09-02T21:22:45.429Z,99.90
2018-09-02T21:25:13.286Z,99.90
2018-09-02T21:27:42.312Z,99.90
2018-09-02T21:30:09.428Z,99.90
2018-09-02T21:32:40.467Z,99.90
2018-09-02T21:35:06.762Z,99.90
2018-09-02T21:37:33.042Z,99.90
2018-09-02T21:39:59.561Z,99.90
2018-09-02T21:42:26.966Z,99.90
2018-09-02T21:44:53.552Z,99.90
2018-09-02T21:47:20.900Z,99.90
2018-09-02T21:49:47.292Z,99.90
2018-09-02T21:52:13.863Z,99.90
2018-09-02T21:54:40.899Z,99.90
2018-09-02T21:57:11.826Z,99.90
2018-09-02T21:59:39.317Z,99.90
2018-09-02T22:02:13.428Z,99.90
2018-09-02T22:04:41.075Z,99.90
2018-09-02T22:07:07.382Z,99.90
2018-09-02T22:09:33.995Z,99.90
2018-09-02T22:12:00.291Z,99.90
2018-09-02T22:14:27.500Z,99.90
2018-09-02T22:16:53.905Z,99.90
2018-09-02T22:19:20.137Z,99.90
2018-09-02T22:21:46.367Z,99.90
2018-09-02T22:24:12.739Z,99.90
2018-09-02T22:26:44.629Z,99.90
2018-09-02T22:29:11.376Z,99.90
2018-09-02T22:31:38.381Z,99.90
2018-09-02T22:34:04.939Z,99.90
2018-09-02T22:36:31.483Z,99.90
2018-09-02T22:39:01.018Z,99.90
2018-09-02T22:41:30.834Z,99.90
2018-09-02T22:44:04.255Z,99.90
2018-09-02T22:46:34.353Z,99.90
2018-09-02T22:49:04.900Z,99.90
2018-09-02T22:51:33.499Z,99.90
2018-09-02T22:54:01.771Z,99.90
2018-09-02T22:56:29.836Z,99.90
2018-09-02T22:58:57.288Z,99.90
2018-09-02T23:01:25.785Z,99.90
2018-09-02T23:03:55.789Z,99.90
2018-09-02T23:06:33.915Z,99.90
2018-09-02T23:09:01.748Z,99.90
2018-09-02T23:11:29.788Z,99.90
2018-09-02T23:14:00.442Z,99.90
2018-09-02T23:16:31.222Z,99.90
2018-09-02T23:18:59.081Z,99.90
2018-09-02T23:21:27.754Z,99.90
2018-09-02T23:23:54.849Z,99.90
2018-09-02T23:26:23.945Z,99.90
2018-09-02T23:28:52.121Z,99.90
2018-09-02T23:31:22.517Z,99.90
2018-09-02T23:33:50.630Z,99.90
2018-09-02T23:36:19.782Z,99.90
2018-09-02T23:41:22.591Z,99.90
2018-09-02T23:43:54.817Z,99.90
2018-09-02T23:46:24.211Z,99.90
2018-09-02T23:48:53.164Z,99.90
2018-09-02T23:51:27.950Z,99.90
2018-09-02T23:53:56.757Z,99.90
2018-09-02T23:56:27.795Z,99.90
2018-09-02T23:58:56.358Z,99.90
